Time;durP1;ratioP1;P1;durP2;ratioP2;P2;SDS_P1;SDS_P2;PMS_P1;PMS_P2;Temp;Humidity;BMP_temperature;BMP_pressure;BME280_temperature;BME280_humidity;BME280_pressure;Samples;Min_cycle;Max_cycle;Signal;HPM_P1;HPM_P2
2022/09/19 00:01:39;;;;;;;0.50;0.50;;;;;8.10;95995.00;;;;5116098;28;20202;-70
2022/09/19 00:04:07;;;;;;;0.50;0.50;;;;;8.00;95982.00;;;;5116038;28;20202;-70
2022/09/19 00:06:37;;;;;;;0.60;0.60;;;;;7.90;95989.00;;;;5115894;28;20222;-68
2022/09/19 00:09:06;;;;;;;0.60;0.60;;;;;7.80;95997.00;;;;5097955;28;20248;-67
2022/09/19 00:11:33;;;;;;;0.50;0.50;;;;;7.80;95995.00;;;;5097868;28;20221;-69
2022/09/19 00:14:01;;;;;;;0.50;0.50;;;;;7.80;95991.00;;;;5116047;28;20214;-68
2022/09/19 00:16:30;;;;;;;0.50;0.50;;;;;7.70;95991.00;;;;5115753;28;20221;-68
2022/09/19 00:18:59;;;;;;;0.60;0.60;;;;;7.80;95996.00;;;;5116181;28;20202;-70
2022/09/19 00:21:28;;;;;;;0.60;0.60;;;;;7.90;96005.00;;;;5115872;28;20198;-69
2022/09/19 00:26:45;;;;;;;0.60;0.60;;;;;7.90;96000.00;;;;5115880;28;20281;-69
2022/09/19 00:29:13;;;;;;;0.50;0.50;;;;;8.00;96007.00;;;;5115924;28;20210;-68
2022/09/19 00:31:39;;;;;;;0.60;0.60;;;;;8.00;96007.00;;;;5115919;28;20536;-69
2022/09/19 00:34:08;;;;;;;0.60;0.60;;;;;8.00;96001.00;;;;5116190;28;20216;-68
2022/09/19 00:36:38;;;;;;;0.50;0.50;;;;;7.90;96011.00;;;;5115521;28;20262;-68
2022/09/19 00:39:07;;;;;;;0.60;0.60;;;;;7.90;96019.00;;;;5115489;28;20231;-68
2022/09/19 00:41:36;;;;;;;0.60;0.60;;;;;8.00;96017.00;;;;5116021;28;20194;-68
2022/09/19 00:44:04;;;;;;;0.60;0.60;;;;;8.00;96014.00;;;;5115480;28;20267;-67
2022/09/19 00:46:34;;;;;;;0.63;0.63;;;;;8.00;96020.00;;;;5114304;28;20190;-68
2022/09/19 00:49:05;;;;;;;0.70;0.70;;;;;8.00;96019.00;;;;5097256;28;20198;-68
2022/09/19 00:51:37;;;;;;;0.50;0.50;;;;;8.00;96024.00;;;;5115229;28;20590;-68
2022/09/19 00:54:09;;;;;;;0.50;0.50;;;;;7.90;96032.00;;;;5115624;28;20170;-68
2022/09/19 00:56:36;;;;;;;0.63;0.63;;;;;7.80;96031.00;;;;5116263;28;20214;-68
2022/09/19 00:59:03;;;;;;;0.50;0.50;;;;;7.80;96033.00;;;;5115195;28;20198;-69
2022/09/19 01:01:30;;;;;;;0.50;0.50;;;;;7.80;96032.00;;;;5115451;28;20217;-69
2022/09/19 01:03:57;;;;;;;0.60;0.60;;;;;7.80;96038.00;;;;5115370;28;20190;-67
2022/09/19 01:06:46;;;;;;;0.60;0.60;;;;;7.80;96042.00;;;;5115313;28;20247;-69
2022/09/19 01:09:35;;;;;;;0.60;0.60;;;;;7.80;96053.00;;;;5097089;28;20205;-69
2022/09/19 01:12:21;;;;;;;0.60;0.60;;;;;7.80;96053.00;;;;5114955;28;20768;-69
2022/09/19 01:15:19;;;;;;;0.60;0.60;;;;;7.80;96048.00;;;;5114966;28;20653;-69
2022/09/19 01:17:48;;;;;;;0.60;0.60;;;;;7.60;96046.00;;;;5114981;28;20194;-69
2022/09/19 01:20:54;;;;;;;0.53;0.53;;;;;7.40;96047.00;;;;5114991;28;20193;-70
2022/09/19 01:23:40;;;;;;;0.60;0.60;;;;;7.50;96051.00;;;;5114837;28;20201;-67
2022/09/19 01:26:25;;;;;;;0.50;0.50;;;;;7.40;96051.00;;;;5114866;28;20222;-69
2022/09/19 01:28:57;;;;;;;0.50;0.50;;;;;7.40;96048.00;;;;5114546;28;20501;-69
2022/09/19 01:31:27;;;;;;;0.50;0.50;;;;;7.30;96048.00;;;;5114564;28;20214;-68
2022/09/19 01:34:02;;;;;;;0.50;0.50;;;;;7.30;96049.00;;;;5114552;28;20190;-68
2022/09/19 01:36:34;;;;;;;0.60;0.60;;;;;7.20;96059.00;;;;5114556;28;20190;-69
2022/09/19 01:39:07;;;;;;;0.60;0.60;;;;;7.20;96049.00;;;;5096570;28;20204;-66
2022/09/19 01:41:36;;;;;;;0.57;0.57;;;;;7.10;96056.00;;;;5114534;28;20243;-69
2022/09/19 01:44:05;;;;;;;0.60;0.60;;;;;7.20;96061.00;;;;5114367;28;20194;-69
2022/09/19 01:46:48;;;;;;;0.60;0.60;;;;;7.30;96052.00;;;;5114380;28;20224;-71
2022/09/19 01:49:26;;;;;;;0.50;0.50;;;;;7.40;96059.00;;;;5114286;28;20198;-68
2022/09/19 01:51:58;;;;;;;0.50;0.50;;;;;7.30;96064.00;;;;5114156;28;20581;-68
2022/09/19 01:54:38;;;;;;;0.50;0.50;;;;;7.20;96064.00;;;;5114323;28;20201;-69
2022/09/19 01:57:15;;;;;;;0.60;0.60;;;;;7.30;96060.00;;;;5096461;28;20240;-69
2022/09/19 01:59:54;;;;;;;0.60;0.60;;;;;7.30;96061.00;;;;5114396;28;20637;-68
2022/09/19 02:02:33;;;;;;;0.60;0.60;;;;;7.10;96073.00;;;;5114413;28;20205;-68
2022/09/19 02:05:08;;;;;;;0.60;0.60;;;;;7.10;96065.00;;;;5114089;28;20684;-69
2022/09/19 02:07:44;;;;;;;0.50;0.50;;;;;7.00;96068.00;;;;5114124;28;20208;-69
2022/09/19 02:10:18;;;;;;;0.50;0.50;;;;;7.00;96071.00;;;;5114131;28;20282;-68
2022/09/19 02:12:50;;;;;;;0.60;0.60;;;;;7.00;96081.00;;;;5096290;28;20216;-69
2022/09/19 02:15:21;;;;;;;0.60;0.60;;;;;7.00;96076.00;;;;5114158;28;20270;-68
2022/09/19 02:17:55;;;;;;;0.50;0.50;;;;;6.90;96066.00;;;;5114082;28;20194;-69
2022/09/19 02:20:26;;;;;;;0.60;0.60;;;;;6.90;96072.00;;;;5113914;28;20217;-69
2022/09/19 02:22:58;;;;;;;0.63;0.63;;;;;6.80;96078.00;;;;5113899;28;20284;-68
2022/09/19 02:25:32;;;;;;;0.60;0.60;;;;;6.80;96078.00;;;;5113843;28;20240;-69
2022/09/19 02:28:03;;;;;;;0.50;0.50;;;;;6.80;96078.00;;;;5113956;28;20198;-69
2022/09/19 02:30:30;;;;;;;0.50;0.50;;;;;6.90;96080.00;;;;5113839;28;20243;-66
2022/09/19 02:32:58;;;;;;;0.97;0.97;;;;;6.90;96083.00;;;;5113854;28;20205;-69
2022/09/19 02:35:34;;;;;;;0.60;0.60;;;;;6.80;96080.00;;;;5113751;28;20220;-69
2022/09/19 02:38:08;;;;;;;0.57;0.57;;;;;6.70;96086.00;;;;5113903;28;20230;-69
2022/09/19 02:40:47;;;;;;;0.50;0.50;;;;;6.50;96083.00;;;;5113696;28;20204;-69
2022/09/19 02:43:24;;;;;;;0.60;0.60;;;;;6.50;96079.00;;;;5095709;28;20552;-68
2022/09/19 02:45:55;;;;;;;0.60;0.60;;;;;6.60;96088.00;;;;5113607;28;20229;-68
2022/09/19 02:48:29;;;;;;;0.53;0.53;;;;;6.60;96085.00;;;;5113521;28;20216;-68
2022/09/19 02:50:59;;;;;;;0.60;0.60;;;;;6.60;96088.00;;;;5113649;28;20213;-68
2022/09/19 02:53:30;;;;;;;0.60;0.60;;;;;6.70;96100.00;;;;5113541;28;20214;-68
2022/09/19 02:56:01;;;;;;;0.50;0.50;;;;;6.50;96088.00;;;;5113515;28;20190;-68
2022/09/19 02:58:30;;;;;;;0.60;0.60;;;;;6.30;96095.00;;;;5113454;28;20229;-66
2022/09/19 03:01:03;;;;;;;0.60;0.60;;;;;6.30;96097.00;;;;5113505;28;20263;-69
2022/09/19 03:06:23;;;;;;;0.50;0.50;;;;;6.20;96101.00;;;;5113196;28;20644;-68
2022/09/19 03:08:53;;;;;;;1.37;0.70;;;;;6.20;96097.00;;;;5113673;28;20201;-70
2022/09/19 03:11:24;;;;;;;0.70;0.70;;;;;6.20;96098.00;;;;5116821;28;20187;-71
2022/09/19 03:13:57;;;;;;;0.70;0.70;;;;;6.20;96096.00;;;;5116941;28;20284;-71
2022/09/19 03:16:29;;;;;;;0.57;0.57;;;;;6.20;96098.00;;;;5098707;28;20238;-69
2022/09/19 03:18:57;;;;;;;0.60;0.60;;;;;6.20;96098.00;;;;5116936;28;20203;-67
2022/09/19 03:21:27;;;;;;;0.40;0.40;;;;;6.10;96103.00;;;;5116716;28;20290;-69
2022/09/19 03:23:58;;;;;;;0.50;0.50;;;;;6.20;96106.00;;;;5116841;28;20209;-69
2022/09/19 03:26:30;;;;;;;0.60;0.60;;;;;6.30;96110.00;;;;5116704;28;20328;-69
2022/09/19 03:29:00;;;;;;;0.73;0.73;;;;;6.20;96112.00;;;;5116444;28;20203;-69
2022/09/19 03:31:28;;;;;;;0.50;0.50;;;;;6.20;96114.00;;;;5116268;28;20219;-69
2022/09/19 03:33:56;;;;;;;1.00;1.00;;;;;6.30;96116.00;;;;5116361;28;20218;-69
2022/09/19 03:36:23;;;;;;;0.70;0.70;;;;;6.40;96118.00;;;;5116184;28;20238;-69
2022/09/19 03:38:50;;;;;;;0.60;0.60;;;;;6.50;96117.00;;;;5116208;28;20193;-70
2022/09/19 03:41:19;;;;;;;0.60;0.60;;;;;6.40;96085.00;;;;5116242;28;20673;-69
2022/09/19 03:43:46;;;;;;;0.60;0.60;;;;;6.40;96124.00;;;;5116230;28;20490;-69
2022/09/19 03:46:15;;;;;;;0.60;0.60;;;;;6.30;96128.00;;;;5116150;28;20264;-69
2022/09/19 03:48:44;;;;;;;0.60;0.60;;;;;6.30;96133.00;;;;5116165;28;20193;-69
2022/09/19 03:51:11;;;;;;;0.60;0.60;;;;;6.50;96134.00;;;;5116107;28;20264;-69
2022/09/19 03:53:38;;;;;;;2.67;1.73;;;;;6.40;96123.00;;;;5116216;28;20196;-69
2022/09/19 03:56:05;;;;;;;0.60;0.60;;;;;6.30;96124.00;;;;5115976;28;20236;-69
2022/09/19 03:58:34;;;;;;;0.70;0.70;;;;;6.50;96136.00;;;;5098606;28;20569;-70
2022/09/19 04:01:01;;;;;;;0.73;0.73;;;;;6.40;96129.00;;;;5115922;28;20290;-69
2022/09/19 04:03:28;;;;;;;2.97;0.87;;;;;6.40;96125.00;;;;5116046;28;20188;-68
2022/09/19 04:05:58;;;;;;;0.70;0.70;;;;;6.40;96135.00;;;;5115794;28;20530;-69
2022/09/19 04:08:25;;;;;;;0.70;0.70;;;;;6.40;96128.00;;;;5115939;28;20262;-69
2022/09/19 04:10:52;;;;;;;0.50;0.50;;;;;6.20;96136.00;;;;5115738;28;20219;-68
2022/09/19 04:13:20;;;;;;;0.60;0.60;;;;;6.30;96135.00;;;;5098101;28;20201;-68
2022/09/19 04:15:47;;;;;;;0.87;0.87;;;;;6.30;96128.00;;;;5115654;28;20671;-68
2022/09/19 04:18:17;;;;;;;0.70;0.70;;;;;6.20;96139.00;;;;5115849;28;20277;-68
2022/09/19 04:20:45;;;;;;;0.70;0.70;;;;;6.20;96134.00;;;;5114304;28;20204;-68
2022/09/19 04:23:13;;;;;;;0.60;0.60;;;;;6.20;96139.00;;;;5115742;28;20205;-69
2022/09/19 04:25:40;;;;;;;0.50;0.50;;;;;6.40;96129.00;;;;5115441;28;20228;-68
2022/09/19 04:28:11;;;;;;;0.50;0.50;;;;;6.40;96143.00;;;;5115433;28;20198;-68
2022/09/19 04:30:41;;;;;;;0.60;0.60;;;;;6.30;96137.00;;;;5115441;28;20311;-68
2022/09/19 04:33:10;;;;;;;0.50;0.50;;;;;6.30;96135.00;;;;5097311;28;20548;-69
2022/09/19 04:35:38;;;;;;;0.60;0.60;;;;;6.30;96137.00;;;;5115388;28;20220;-68
2022/09/19 04:38:06;;;;;;;0.80;0.80;;;;;6.40;96138.00;;;;5097301;28;20198;-68
2022/09/19 04:40:38;;;;;;;0.60;0.60;;;;;6.60;96125.00;;;;5115399;28;20190;-68
2022/09/19 04:43:05;;;;;;;0.50;0.50;;;;;6.50;96131.00;;;;5115413;28;20190;-69
2022/09/19 04:45:32;;;;;;;0.90;0.90;;;;;6.60;96135.00;;;;5115169;28;20262;-68
2022/09/19 04:47:59;;;;;;;0.70;0.70;;;;;6.50;96144.00;;;;5115203;28;20231;-69
2022/09/19 04:50:28;;;;;;;0.50;0.50;;;;;6.70;96154.00;;;;5115158;28;20194;-69
2022/09/19 04:52:57;;;;;;;1.00;1.00;;;;;6.70;96139.00;;;;5115410;28;20213;-68
2022/09/19 04:55:25;;;;;;;0.50;0.50;;;;;6.80;96155.00;;;;5115097;28;20520;-69
2022/09/19 04:57:52;;;;;;;0.60;0.60;;;;;6.80;96156.00;;;;5115110;28;20191;-67
2022/09/19 05:00:36;;;;;;;0.60;0.60;;;;;7.00;96162.00;;;;5115121;28;20616;-68
2022/09/19 05:03:06;;;;;;;0.50;0.50;;;;;6.90;96155.00;;;;5115018;28;20610;-69
2022/09/19 05:05:34;;;;;;;0.90;0.90;;;;;7.00;96164.00;;;;5115021;28;20239;-68
2022/09/19 05:08:02;;;;;;;0.70;0.70;;;;;6.90;96158.00;;;;5115389;28;20220;-69
2022/09/19 05:10:29;;;;;;;0.60;0.60;;;;;7.00;96165.00;;;;5115566;28;20200;-69
2022/09/19 05:12:56;;;;;;;0.60;0.60;;;;;7.00;96168.00;;;;5114854;28;20297;-68
2022/09/19 05:15:24;;;;;;;1.43;1.43;;;;;7.10;96171.00;;;;5114665;28;20193;-68
2022/09/19 05:17:52;;;;;;;0.57;0.57;;;;;7.10;96176.00;;;;5114699;28;20220;-68
2022/09/19 05:20:26;;;;;;;0.50;0.50;;;;;7.20;96184.00;;;;5114805;28;20206;-68
2022/09/19 05:22:58;;;;;;;0.70;0.70;;;;;7.20;96176.00;;;;5096775;28;20229;-68
2022/09/19 05:25:27;;;;;;;0.60;0.60;;;;;7.30;96178.00;;;;5114559;28;20244;-69
2022/09/19 05:27:55;;;;;;;0.53;0.53;;;;;7.00;96183.00;;;;5114457;28;20222;-68
2022/09/19 05:30:26;;;;;;;0.90;0.90;;;;;7.10;96181.00;;;;5114555;28;20339;-68
2022/09/19 05:32:55;;;;;;;0.60;0.60;;;;;7.20;96180.00;;;;5113977;28;20217;-69
2022/09/19 05:35:24;;;;;;;0.70;0.70;;;;;7.20;96188.00;;;;5114781;28;20322;-69
2022/09/19 05:37:51;;;;;;;1.53;1.50;;;;;7.20;96185.00;;;;5114304;28;20286;-68
2022/09/19 05:40:18;;;;;;;2.93;1.97;;;;;7.40;96191.00;;;;5114375;28;20294;-68
2022/09/19 05:42:47;;;;;;;2.30;2.10;;;;;7.40;96184.00;;;;5096334;28;20320;-68
2022/09/19 05:45:15;;;;;;;0.90;0.90;;;;;7.60;96189.00;;;;5114238;28;20297;-68
2022/09/19 05:47:41;;;;;;;1.00;1.00;;;;;7.70;96197.00;;;;5114193;28;20552;-69
2022/09/19 05:50:10;;;;;;;0.60;0.60;;;;;7.80;96194.00;;;;5114288;28;20193;-68
2022/09/19 05:55:23;;;;;;;0.60;0.60;;;;;7.40;96202.00;;;;5114151;28;20198;-68
2022/09/19 05:57:51;;;;;;;0.70;0.70;;;;;7.40;96201.00;;;;5114043;28;20531;-69
2022/09/19 06:00:19;;;;;;;0.60;0.60;;;;;7.60;96210.00;;;;5114042;28;20193;-69
2022/09/19 06:02:54;;;;;;;0.50;0.50;;;;;7.50;96210.00;;;;5114196;28;20210;-68
2022/09/19 06:05:24;;;;;;;0.67;0.67;;;;;7.50;96207.00;;;;5113886;28;20228;-70
2022/09/19 06:07:51;;;;;;;0.70;0.70;;;;;7.40;96211.00;;;;5096026;28;20230;-70
2022/09/19 06:10:19;;;;;;;0.60;0.60;;;;;7.30;96213.00;;;;5096169;28;20205;-71
2022/09/19 06:12:46;;;;;;;0.53;0.53;;;;;7.40;96209.00;;;;5113925;28;20214;-70
2022/09/19 06:15:12;;;;;;;0.80;0.80;;;;;7.60;96213.00;;;;5113785;28;20209;-70
2022/09/19 06:17:40;;;;;;;0.50;0.50;;;;;7.60;96219.00;;;;5113677;28;20213;-70
2022/09/19 06:20:08;;;;;;;0.73;0.73;;;;;7.60;96231.00;;;;5113764;28;20234;-66
2022/09/19 06:22:35;;;;;;;2.10;0.93;;;;;7.70;96217.00;;;;5095605;28;20206;-66
2022/09/19 06:25:03;;;;;;;0.80;0.80;;;;;7.80;96233.00;;;;5113688;28;20304;-61
2022/09/19 06:27:29;;;;;;;0.90;0.90;;;;;7.80;96223.00;;;;5113738;28;20585;-65
2022/09/19 06:29:57;;;;;;;0.70;0.70;;;;;7.90;96239.00;;;;5113567;28;20193;-62
2022/09/19 06:32:24;;;;;;;0.90;0.90;;;;;8.10;96238.00;;;;5113568;28;20216;-62
2022/09/19 06:34:54;;;;;;;0.87;0.87;;;;;8.20;96241.00;;;;5113537;28;20225;-61
2022/09/19 06:37:21;;;;;;;0.60;0.60;;;;;8.30;96246.00;;;;5113478;28;20236;-62
2022/09/19 06:39:47;;;;;;;0.57;0.57;;;;;8.30;96244.00;;;;5113431;28;20209;-63
2022/09/19 06:42:14;;;;;;;0.60;0.60;;;;;8.40;96248.00;;;;5113522;28;20198;-68
2022/09/19 06:44:41;;;;;;;1.23;1.13;;;;;8.40;96242.00;;;;5115104;28;20201;-77
2022/09/19 06:47:08;;;;;;;0.50;0.50;;;;;8.50;96252.00;;;;5117060;28;20270;-77
2022/09/19 06:49:35;;;;;;;0.90;0.90;;;;;8.50;96257.00;;;;5117351;28;20190;-75
2022/09/19 06:52:05;;;;;;;1.83;1.60;;;;;8.40;96247.00;;;;5117056;28;20213;-75
2022/09/19 06:54:32;;;;;;;0.60;0.60;;;;;8.50;96254.00;;;;5117214;28;20186;-76
2022/09/19 06:56:59;;;;;;;1.30;1.20;;;;;8.60;96257.00;;;;5117156;28;20198;-75
2022/09/19 06:59:27;;;;;;;0.60;0.60;;;;;8.70;96267.00;;;;5099039;28;20194;-76
2022/09/19 07:01:53;;;;;;;0.63;0.63;;;;;8.80;96264.00;;;;5116950;28;20197;-76
2022/09/19 07:04:20;;;;;;;0.73;0.73;;;;;8.70;96259.00;;;;5116869;28;20218;-75
2022/09/19 07:06:47;;;;;;;0.60;0.60;;;;;8.60;96263.00;;;;5116788;28;20679;-76
2022/09/19 07:09:14;;;;;;;0.50;0.50;;;;;8.40;96262.00;;;;5116685;28;20218;-75
2022/09/19 07:11:43;;;;;;;0.53;0.53;;;;;8.50;96271.00;;;;5116892;28;20197;-75
2022/09/19 07:14:12;;;;;;;0.60;0.60;;;;;8.60;96280.00;;;;5116634;28;20205;-75
2022/09/19 07:16:38;;;;;;;0.60;0.60;;;;;8.50;96266.00;;;;5116759;28;20186;-75
2022/09/19 07:19:05;;;;;;;0.50;0.50;;;;;8.50;96284.00;;;;5116705;28;20637;-74
2022/09/19 07:21:34;;;;;;;0.90;0.90;;;;;8.60;96276.00;;;;5116512;28;20550;-72
2022/09/19 07:24:04;;;;;;;0.53;0.53;;;;;8.50;96271.00;;;;5116983;28;20222;-75
2022/09/19 07:26:31;;;;;;;0.60;0.60;;;;;8.50;96279.00;;;;5116559;28;20296;-76
2022/09/19 07:28:58;;;;;;;1.17;0.67;;;;;8.60;96289.00;;;;5117008;28;20198;-76
2022/09/19 07:31:26;;;;;;;1.10;1.03;;;;;8.60;96288.00;;;;5117585;28;20284;-77
2022/09/19 07:33:53;;;;;;;0.50;0.50;;;;;8.80;96288.00;;;;5116620;28;20190;-77
2022/09/19 07:36:21;;;;;;;2.27;1.23;;;;;9.00;96286.00;;;;5116494;28;20194;-76
2022/09/19 07:38:48;;;;;;;1.03;1.03;;;;;8.90;96290.00;;;;5116250;28;20667;-73
2022/09/19 07:41:16;;;;;;;0.80;0.80;;;;;9.10;96293.00;;;;5116551;28;20194;-74
2022/09/19 07:43:44;;;;;;;0.50;0.50;;;;;9.20;96301.00;;;;5116246;28;20221;-75
2022/09/19 07:46:15;;;;;;;2.17;1.10;;;;;9.30;96296.00;;;;5116782;28;20221;-75
2022/09/19 07:48:42;;;;;;;0.83;0.83;;;;;9.40;96304.00;;;;5116507;28;20214;-76
2022/09/19 07:51:09;;;;;;;1.30;1.20;;;;;9.50;96301.00;;;;5116384;28;20190;-77
2022/09/19 07:53:35;;;;;;;0.70;0.70;;;;;9.50;96308.00;;;;5116283;28;20197;-76
2022/09/19 07:56:04;;;;;;;0.70;0.70;;;;;9.60;96321.00;;;;5115861;28;20226;-75
2022/09/19 07:58:31;;;;;;;1.07;1.07;;;;;9.70;96323.00;;;;5116059;28;20205;-75
2022/09/19 08:01:00;;;;;;;0.60;0.60;;;;;9.70;96320.00;;;;5115921;28;20226;-72
2022/09/19 08:03:29;;;;;;;1.23;0.93;;;;;9.70;96326.00;;;;5116134;28;20204;-77
2022/09/19 08:05:59;;;;;;;0.63;0.63;;;;;9.50;96325.00;;;;5115760;28;20555;-77
2022/09/19 08:08:28;;;;;;;0.50;0.50;;;;;9.40;96328.00;;;;5115940;28;20247;-74
2022/09/19 08:11:01;;;;;;;1.90;1.40;;;;;9.60;96334.00;;;;5115851;28;20529;-74
2022/09/19 08:13:29;;;;;;;0.70;0.70;;;;;9.50;96330.00;;;;5115957;28;20228;-76
2022/09/19 08:15:57;;;;;;;0.60;0.60;;;;;9.30;96337.00;;;;5115821;28;20213;-76
2022/09/19 08:18:26;;;;;;;0.60;0.60;;;;;9.40;96335.00;;;;5115751;28;20282;-76
2022/09/19 08:20:53;;;;;;;0.60;0.60;;;;;9.60;96339.00;;;;5115829;28;20633;-75
2022/09/19 08:23:21;;;;;;;0.67;0.67;;;;;9.70;96338.00;;;;5115573;28;20210;-73
2022/09/19 08:25:51;;;;;;;1.03;1.03;;;;;9.70;96343.00;;;;5115527;28;20216;-75
2022/09/19 08:28:20;;;;;;;9.67;0.90;;;;;9.50;96338.00;;;;5115521;28;20634;-72
2022/09/19 08:30:48;;;;;;;0.50;0.50;;;;;9.70;96345.00;;;;5115427;28;20341;-74
2022/09/19 08:33:16;;;;;;;0.60;0.60;;;;;9.90;96340.00;;;;5115615;28;20206;-75
2022/09/19 08:35:44;;;;;;;3.07;0.83;;;;;10.10;96343.00;;;;5115532;28;20210;-76
2022/09/19 08:38:13;;;;;;;1.37;1.27;;;;;10.10;96338.00;;;;5115643;28;20190;-76
2022/09/19 08:41:06;;;;;;;0.60;0.60;;;;;10.40;96339.00;;;;5115973;28;20193;-75
2022/09/19 08:43:43;;;;;;;0.70;0.70;;;;;10.40;96349.00;;;;5115720;28;20634;-70
2022/09/19 08:46:15;;;;;;;0.60;0.60;;;;;10.30;96341.00;;;;5115571;28;20249;-76
2022/09/19 08:48:52;;;;;;;0.60;0.60;;;;;10.50;96347.00;;;;5097453;28;20330;-73
2022/09/19 08:51:25;;;;;;;0.60;0.60;;;;;10.60;96352.00;;;;5115566;28;20288;-76
2022/09/19 08:53:57;;;;;;;0.80;0.80;;;;;10.60;96354.00;;;;5115274;28;20213;-77
2022/09/19 08:56:24;;;;;;;0.73;0.73;;;;;10.60;96349.00;;;;5115483;28;20194;-75
2022/09/19 08:58:56;;;;;;;0.80;0.80;;;;;10.70;96342.00;;;;5115783;28;20615;-73
2022/09/19 09:01:25;;;;;;;2.83;0.93;;;;;10.80;96356.00;;;;5115371;28;20198;-76
2022/09/19 09:04:07;;;;;;;0.60;0.60;;;;;10.90;96359.00;;;;5115193;28;20309;-75
2022/09/19 09:06:44;;;;;;;0.83;0.73;;;;;10.90;96360.00;;;;5114616;28;20555;-76
2022/09/19 09:09:19;;;;;;;4.13;1.07;;;;;10.80;96363.00;;;;5124054;28;20186;-75
2022/09/19 09:11:58;;;;;;;0.50;0.50;;;;;11.10;96352.00;;;;5125555;28;20272;-77
2022/09/19 09:14:31;;;;;;;0.70;0.70;;;;;11.40;96364.00;;;;5115295;28;20683;-76
2022/09/19 09:17:15;;;;;;;0.53;0.53;;;;;11.50;96368.00;;;;5115176;28;20288;-74
2022/09/19 09:20:14;;;;;;;0.60;0.60;;;;;10.50;96361.00;;;;5097306;28;20237;-76
2022/09/19 09:22:45;;;;;;;0.53;0.53;;;;;10.40;96371.00;;;;5114913;28;20206;-74
2022/09/19 09:25:17;;;;;;;0.97;0.97;;;;;10.80;96371.00;;;;5114862;28;20320;-75
2022/09/19 09:27:56;;;;;;;0.80;0.80;;;;;11.00;96373.00;;;;5114834;28;20252;-76
2022/09/19 09:30:23;;;;;;;0.83;0.83;;;;;11.30;96369.00;;;;5114902;28;20280;-75
2022/09/19 09:32:56;;;;;;;0.80;0.80;;;;;11.30;96369.00;;;;5114517;28;20522;-74
2022/09/19 09:35:33;;;;;;;8.47;1.17;;;;;11.40;96374.00;;;;5114671;28;20672;-74
2022/09/19 09:38:08;;;;;;;0.57;0.57;;;;;11.20;96373.00;;;;5114671;28;20186;-75
2022/09/19 09:43:41;;;;;;;0.80;0.80;;;;;11.10;96377.00;;;;5114567;28;20210;-75
2022/09/19 09:46:12;;;;;;;0.60;0.60;;;;;10.90;96367.00;;;;5114567;28;20346;-75
2022/09/19 09:48:40;;;;;;;0.70;0.70;;;;;11.10;96361.00;;;;5114552;28;20204;-75
2022/09/19 09:51:21;;;;;;;0.50;0.50;;;;;11.20;96366.00;;;;5114338;28;20217;-76
2022/09/19 09:56:14;;;;;;;0.60;0.60;;;;;10.90;96380.00;;;;5114508;28;20502;-76
2022/09/19 09:57:02;;;;;;;0.57;0.57;;;;;11.10;96370.00;;;;5114240;28;20221;-75
2022/09/19 10:05:26;;;;;;;0.60;0.60;;;;;11.40;96371.00;;;;5114117;28;20246;-75
2022/09/19 10:08:02;;;;;;;0.57;0.57;;;;;11.60;96368.00;;;;5114279;28;20225;-76
2022/09/19 10:10:32;;;;;;;3.13;1.23;;;;;11.80;96363.00;;;;5114325;28;20186;-75
2022/09/19 10:13:07;;;;;;;1.80;1.00;;;;;11.90;96366.00;;;;5114045;28;20190;-75
2022/09/19 10:15:39;;;;;;;0.50;0.50;;;;;12.10;96374.00;;;;5114234;28;20631;-73
2022/09/19 10:18:09;;;;;;;0.70;0.70;;;;;12.10;96368.00;;;;5113976;28;20262;-76
2022/09/19 10:20:42;;;;;;;0.50;0.50;;;;;12.00;96364.00;;;;5113933;28;20194;-75
2022/09/19 10:23:15;;;;;;;4.67;1.13;;;;;12.10;96362.00;;;;5114072;28;20231;-74
2022/09/19 10:25:42;;;;;;;0.50;0.50;;;;;12.20;96362.00;;;;5113916;28;20232;-76
2022/09/19 10:28:25;;;;;;;0.57;0.57;;;;;12.30;96361.00;;;;5113929;28;20265;-76
2022/09/19 10:31:00;;;;;;;0.50;0.50;;;;;12.40;96368.00;;;;5095837;28;20362;-80
2022/09/19 10:33:38;;;;;;;0.57;0.57;;;;;12.30;96371.00;;;;5114009;28;20190;-76
2022/09/19 10:36:14;;;;;;;0.60;0.60;;;;;12.20;96367.00;;;;5113864;28;20603;-60
2022/09/19 10:38:49;;;;;;;0.60;0.60;;;;;12.10;96381.00;;;;5113807;28;20284;-61
2022/09/19 10:41:21;;;;;;;0.60;0.60;;;;;12.00;96370.00;;;;5113601;28;20208;-65
2022/09/19 10:43:50;;;;;;;1.07;1.07;;;;;11.90;96373.00;;;;5113642;28;20214;-70
2022/09/19 10:46:20;;;;;;;2.53;1.37;;;;;11.40;96362.00;;;;5113429;28;20253;-68
2022/09/19 10:48:53;;;;;;;0.50;0.50;;;;;12.00;96382.00;;;;5095806;28;20253;-68
2022/09/19 10:51:21;;;;;;;0.50;0.50;;;;;12.20;96382.00;;;;5113500;28;20333;-68
2022/09/19 10:53:53;;;;;;;0.50;0.50;;;;;12.20;96373.00;;;;5113244;28;20222;-65
2022/09/19 10:56:25;;;;;;;0.60;0.60;;;;;12.20;96366.00;;;;5113424;28;20194;-68
2022/09/19 10:59:00;;;;;;;0.70;0.70;;;;;12.00;96329.00;;;;5113538;28;20275;-68
2022/09/19 11:01:27;;;;;;;0.60;0.60;;;;;12.00;96374.00;;;;5113263;28;20201;-68
2022/09/19 11:04:05;;;;;;;0.60;0.60;;;;;12.20;96368.00;;;;5113219;28;20209;-66
2022/09/19 11:06:33;;;;;;;0.50;0.50;;;;;11.90;96374.00;;;;5113036;28;20233;-68
2022/09/19 11:09:06;;;;;;;0.50;0.50;;;;;12.00;96382.00;;;;5113110;28;20190;-64
2022/09/19 11:11:40;;;;;;;0.50;0.50;;;;;12.00;96369.00;;;;5113078;28;20296;-69
2022/09/19 11:14:19;;;;;;;0.70;0.70;;;;;12.30;96383.00;;;;5113116;28;20512;-68
2022/09/19 11:17:30;;;;;;;0.60;0.60;;;;;12.50;96383.00;;;;5113091;28;20253;-67
2022/09/19 11:20:16;;;;;;;0.90;0.90;;;;;12.40;96386.00;;;;5076763;28;20222;-69
2022/09/19 11:23:13;;;;;;;0.50;0.50;;;;;12.60;96382.00;;;;5112835;28;20238;-68
2022/09/19 11:25:50;;;;;;;0.50;0.50;;;;;12.70;96349.00;;;;5094829;28;20309;-68
2022/09/19 11:28:27;;;;;;;5.73;0.90;;;;;12.60;96383.00;;;;5095030;28;20257;-70
2022/09/19 11:31:09;;;;;;;0.60;0.60;;;;;12.90;96381.00;;;;5114893;28;20292;-69
2022/09/19 11:33:47;;;;;;;0.70;0.70;;;;;13.10;96369.00;;;;5116522;28;20204;-68
2022/09/19 11:36:25;;;;;;;0.70;0.70;;;;;13.50;96381.00;;;;5116402;28;20190;-67
2022/09/19 11:39:00;;;;;;;0.60;0.60;;;;;13.80;96383.00;;;;5098505;28;20564;-69
2022/09/19 11:41:52;;;;;;;0.50;0.50;;;;;14.30;96377.00;;;;5116506;28;20628;-68
2022/09/19 11:44:52;;;;;;;0.50;0.50;;;;;13.40;96382.00;;;;5116302;28;20191;-69
2022/09/19 11:47:35;;;;;;;0.60;0.60;;;;;13.80;96382.00;;;;5111988;28;20209;-68
2022/09/19 11:50:23;;;;;;;0.67;0.67;;;;;13.40;96382.00;;;;5116309;28;20198;-68
2022/09/19 11:53:10;;;;;;;0.60;0.60;;;;;13.10;96386.00;;;;5116013;28;20302;-66
2022/09/19 11:55:44;;;;;;;0.43;0.43;;;;;12.70;96378.00;;;;5116096;28;20201;-68
2022/09/19 11:58:21;;;;;;;0.40;0.40;;;;;12.80;96389.00;;;;5116067;28;20229;-67
2022/09/19 12:01:00;;;;;;;0.40;0.40;;;;;12.40;96386.00;;;;5116065;28;20201;-66
2022/09/19 12:03:56;;;;;;;0.50;0.50;;;;;12.20;96381.00;;;;5116004;28;20282;-66
2022/09/19 12:06:45;;;;;;;0.60;0.60;;;;;12.60;96376.00;;;;5115966;28;20290;-66
2022/09/19 12:09:17;;;;;;;0.50;0.50;;;;;12.50;96380.00;;;;5115954;28;20245;-68
2022/09/19 12:11:49;;;;;;;0.43;0.43;;;;;12.60;96365.00;;;;5115928;28;20194;-66
2022/09/19 12:14:23;;;;;;;0.50;0.50;;;;;12.60;96377.00;;;;5115733;28;20222;-66
2022/09/19 12:16:54;;;;;;;0.50;0.50;;;;;12.50;96375.00;;;;5115764;28;20274;-66
2022/09/19 12:19:27;;;;;;;1.17;1.07;;;;;12.50;96364.00;;;;5115628;28;20205;-66
2022/09/19 12:21:58;;;;;;;0.53;0.53;;;;;12.40;96365.00;;;;5115685;28;20198;-66
2022/09/19 12:27:23;;;;;;;0.77;0.77;;;;;12.30;96366.00;;;;5115419;28;20684;-66
2022/09/19 12:29:57;;;;;;;0.50;0.50;;;;;11.90;96366.00;;;;5115728;28;20201;-66
2022/09/19 12:32:32;;;;;;;0.50;0.50;;;;;12.10;96368.00;;;;5115609;28;20270;-66
2022/09/19 12:35:04;;;;;;;0.40;0.40;;;;;12.20;96361.00;;;;5115410;28;20189;-66
2022/09/19 12:37:38;;;;;;;0.50;0.50;;;;;12.20;96370.00;;;;5097411;28;20222;-67
2022/09/19 12:40:14;;;;;;;0.50;0.50;;;;;12.40;96361.00;;;;5115330;28;20209;-66
2022/09/19 12:42:52;;;;;;;0.70;0.70;;;;;12.60;96350.00;;;;5096292;28;20190;-66
2022/09/19 12:45:25;;;;;;;0.67;0.67;;;;;13.40;96350.00;;;;5115550;28;20341;-69
2022/09/19 12:48:06;;;;;;;1.23;0.87;;;;;13.70;96352.00;;;;5115279;28;20290;-67
2022/09/19 12:50:40;;;;;;;0.60;0.60;;;;;13.60;96353.00;;;;5115367;28;20193;-65
2022/09/19 12:53:25;;;;;;;0.53;0.53;;;;;14.00;96355.00;;;;5115294;28;20198;-67
2022/09/19 12:56:00;;;;;;;0.50;0.50;;;;;13.80;96353.00;;;;5115215;28;20291;-67
2022/09/19 12:58:31;;;;;;;0.83;0.83;;;;;13.90;96355.00;;;;5115143;28;20197;-67
2022/09/19 13:01:12;;;;;;;0.50;0.50;;;;;14.00;96346.00;;;;5114997;28;20217;-67
2022/09/19 13:03:44;;;;;;;0.40;0.40;;;;;14.40;96337.00;;;;5115057;28;20629;-66
2022/09/19 13:06:18;;;;;;;0.50;0.50;;;;;15.00;96316.00;;;;5096751;28;20225;-67
2022/09/19 13:08:52;;;;;;;0.50;0.50;;;;;15.30;96329.00;;;;5114942;28;20200;-66